sensor_id;sensor_type;location;lat;lon;timestamp;pressure;altitude;pressure_sealevel;temperature;humidity
32131;BME280;18639;50.716;7.086;2023-04-04T00:00:15;101656.06;;;2.76;86.86
32131;BME280;18639;50.716;7.086;2023-04-04T00:02:41;101655.19;;;2.77;87.24
32131;BME280;18639;50.716;7.086;2023-04-04T00:05:06;101655.19;;;2.77;86.93
32131;BME280;18639;50.716;7.086;2023-04-04T00:07:32;101661.97;;;2.78;86.70
32131;BME280;18639;50.716;7.086;2023-04-04T00:09:58;101656.97;;;2.72;86.75
32131;BME280;18639;50.716;7.086;2023-04-04T00:12:23;101609.75;;;2.35;87.71
32131;BME280;18639;50.716;7.086;2023-04-04T00:14:49;101629.19;;;2.45;88.18
32131;BME280;18639;50.716;7.086;2023-04-04T00:17:15;101656.25;;;2.57;87.90
32131;BME280;18639;50.716;7.086;2023-04-04T00:19:40;101657.19;;;2.51;88.23
32131;BME280;18639;50.716;7.086;2023-04-04T00:22:05;101642.81;;;2.44;87.73
32131;BME280;18639;50.716;7.086;2023-04-04T00:24:31;101648.72;;;2.47;88.53
32131;BME280;18639;50.716;7.086;2023-04-04T00:26:56;101642.00;;;2.39;88.42
32131;BME280;18639;50.716;7.086;2023-04-04T00:29:22;101647.91;;;2.44;89.19
32131;BME280;18639;50.716;7.086;2023-04-04T00:31:47;101647.13;;;2.36;90.29
32131;BME280;18639;50.716;7.086;2023-04-04T00:34:12;101657.31;;;2.36;90.69
32131;BME280;18639;50.716;7.086;2023-04-04T00:36:38;101627.78;;;2.17;90.75
32131;BME280;18639;50.716;7.086;2023-04-04T00:39:03;101658.31;;;2.23;91.18
32131;BME280;18639;50.716;7.086;2023-04-04T00:41:28;101634.66;;;2.07;91.18
32131;BME280;18639;50.716;7.086;2023-04-04T00:43:54;101651.56;;;2.19;91.45
32131;BME280;18639;50.716;7.086;2023-04-04T00:46:20;101648.97;;;2.20;91.75
32131;BME280;18639;50.716;7.086;2023-04-04T00:48:46;101641.47;;;2.06;92.22
32131;BME280;18639;50.716;7.086;2023-04-04T00:51:12;101658.38;;;2.15;92.09
32131;BME280;18639;50.716;7.086;2023-04-04T00:53:37;101649.13;;;2.06;91.85
32131;BME280;18639;50.716;7.086;2023-04-04T00:56:03;101655.91;;;2.06;91.68
32131;BME280;18639;50.716;7.086;2023-04-04T00:58:29;101660.97;;;2.10;91.70
32131;BME280;18639;50.716;7.086;2023-04-04T01:00:55;101638.16;;;1.97;91.33
32131;BME280;18639;50.716;7.086;2023-04-04T01:03:20;101659.44;;;1.91;91.68
32131;BME280;18639;50.716;7.086;2023-04-04T01:05:46;101617.13;;;1.67;91.09
32131;BME280;18639;50.716;7.086;2023-04-04T01:08:11;101663.63;;;1.97;90.59
32131;BME280;18639;50.716;7.086;2023-04-04T01:10:38;101656.00;;;1.97;91.38
32131;BME280;18639;50.716;7.086;2023-04-04T01:13:03;101662.75;;;1.99;91.70
32131;BME280;18639;50.716;7.086;2023-04-04T01:15:29;101662.78;;;1.93;92.41
32131;BME280;18639;50.716;7.086;2023-04-04T01:17:57;101664.50;;;1.97;93.67
32131;BME280;18639;50.716;7.086;2023-04-04T01:20:25;101641.69;;;1.79;94.26
32131;BME280;18639;50.716;7.086;2023-04-04T01:22:52;101665.34;;;1.93;93.77
32131;BME280;18639;50.716;7.086;2023-04-04T01:25:29;101639.97;;;1.80;94.07
32131;BME280;18639;50.716;7.086;2023-04-04T01:27:58;101649.28;;;1.82;94.56
32131;BME280;18639;50.716;7.086;2023-04-04T01:30:27;101662.03;;;1.85;94.83
32131;BME280;18639;50.716;7.086;2023-04-04T01:33:00;101648.47;;;1.79;95.10
32131;BME280;18639;50.716;7.086;2023-04-04T01:35:37;101666.28;;;1.86;94.16
32131;BME280;18639;50.716;7.086;2023-04-04T01:38:26;101656.06;;;1.86;93.72
32131;BME280;18639;50.716;7.086;2023-04-04T01:41:01;101643.38;;;1.79;94.36
32131;BME280;18639;50.716;7.086;2023-04-04T01:43:29;101660.34;;;1.83;94.94
32131;BME280;18639;50.716;7.086;2023-04-04T01:45:57;101660.38;;;1.81;94.58
32131;BME280;18639;50.716;7.086;2023-04-04T01:48:23;101637.53;;;1.66;95.30
32131;BME280;18639;50.716;7.086;2023-04-04T01:50:48;101645.97;;;1.74;95.91
32131;BME280;18639;50.716;7.086;2023-04-04T01:53:13;101632.47;;;1.63;95.79
32131;BME280;18639;50.716;7.086;2023-04-04T01:55:38;101651.91;;;1.73;95.64
32131;BME280;18639;50.716;7.086;2023-04-04T01:58:04;101648.53;;;1.73;95.34
32131;BME280;18639;50.716;7.086;2023-04-04T02:00:29;101651.06;;;1.74;95.60
32131;BME280;18639;50.716;7.086;2023-04-04T02:02:54;101647.72;;;1.71;96.08
32131;BME280;18639;50.716;7.086;2023-04-04T02:05:20;101639.25;;;1.64;95.93
32131;BME280;18639;50.716;7.086;2023-04-04T02:07:47;101646.81;;;1.73;96.05
32131;BME280;18639;50.716;7.086;2023-04-04T02:10:14;101642.63;;;1.66;96.39
32131;BME280;18639;50.716;7.086;2023-04-04T02:12:39;101633.31;;;1.63;96.77
32131;BME280;18639;50.716;7.086;2023-04-04T02:15:05;101645.19;;;1.63;96.65
32131;BME280;18639;50.716;7.086;2023-04-04T02:17:30;101650.31;;;1.60;96.68
32131;BME280;18639;50.716;7.086;2023-04-04T02:19:56;101623.25;;;1.48;96.73
32131;BME280;18639;50.716;7.086;2023-04-04T02:22:21;101646.09;;;1.59;97.29
32131;BME280;18639;50.716;7.086;2023-04-04T02:24:47;101652.03;;;1.58;97.40
32131;BME280;18639;50.716;7.086;2023-04-04T02:27:12;101657.16;;;1.55;97.16
32131;BME280;18639;50.716;7.086;2023-04-04T02:29:37;101661.38;;;1.56;96.13
32131;BME280;18639;50.716;7.086;2023-04-04T02:32:03;101656.31;;;1.53;95.56
32131;BME280;18639;50.716;7.086;2023-04-04T02:34:28;101646.13;;;1.50;96.16
32131;BME280;18639;50.716;7.086;2023-04-04T02:36:53;101641.88;;;1.52;96.36
32131;BME280;18639;50.716;7.086;2023-04-04T02:39:18;101646.09;;;1.56;96.66
32131;BME280;18639;50.716;7.086;2023-04-04T02:41:44;101630.84;;;1.54;97.16
32131;BME280;18639;50.716;7.086;2023-04-04T02:44:09;101629.09;;;1.58;97.38
32131;BME280;18639;50.716;7.086;2023-04-04T02:46:34;101632.50;;;1.57;97.62
32131;BME280;18639;50.716;7.086;2023-04-04T02:49:00;101615.59;;;1.47;97.64
32131;BME280;18639;50.716;7.086;2023-04-04T02:51:26;101639.31;;;1.55;97.17
32131;BME280;18639;50.716;7.086;2023-04-04T02:53:51;101627.41;;;1.57;97.57
32131;BME280;18639;50.716;7.086;2023-04-04T02:56:16;101609.66;;;1.48;96.44
32131;BME280;18639;50.716;7.086;2023-04-04T02:58:41;101601.25;;;1.37;96.70
32131;BME280;18639;50.716;7.086;2023-04-04T03:01:07;101621.53;;;1.46;96.80
32131;BME280;18639;50.716;7.086;2023-04-04T03:03:32;101596.16;;;1.34;96.58
32131;BME280;18639;50.716;7.086;2023-04-04T03:05:58;101602.06;;;1.42;97.03
32131;BME280;18639;50.716;7.086;2023-04-04T03:08:24;101578.41;;;1.24;96.51
32131;BME280;18639;50.716;7.086;2023-04-04T03:10:49;101580.06;;;1.32;96.86
32131;BME280;18639;50.716;7.086;2023-04-04T03:13:14;101569.06;;;1.28;96.79
32131;BME280;18639;50.716;7.086;2023-04-04T03:15:40;101595.25;;;1.41;96.92
32131;BME280;18639;50.716;7.086;2023-04-04T03:18:05;101600.31;;;1.47;96.68
32131;BME280;18639;50.716;7.086;2023-04-04T03:20:31;101589.31;;;1.42;96.32
32131;BME280;18639;50.716;7.086;2023-04-04T03:22:57;101570.75;;;1.27;96.66
32131;BME280;18639;50.716;7.086;2023-04-04T03:25:22;101597.78;;;1.45;97.45
32131;BME280;18639;50.716;7.086;2023-04-04T03:27:47;101577.47;;;1.35;97.55
32131;BME280;18639;50.716;7.086;2023-04-04T03:30:13;101601.22;;;1.43;97.70
32131;BME280;18639;50.716;7.086;2023-04-04T03:32:38;101612.19;;;1.48;97.56
32131;BME280;18639;50.716;7.086;2023-04-04T03:35:07;101602.06;;;1.42;97.05
32131;BME280;18639;50.716;7.086;2023-04-04T03:37:33;101609.66;;;1.46;96.38
32131;BME280;18639;50.716;7.086;2023-04-04T03:39:59;101610.47;;;1.50;95.55
32131;BME280;18639;50.716;7.086;2023-04-04T03:42:25;101606.28;;;1.44;94.87
32131;BME280;18639;50.716;7.086;2023-04-04T03:44:53;101607.09;;;1.48;94.21
32131;BME280;18639;50.716;7.086;2023-04-04T03:47:19;101585.16;;;1.28;95.43
32131;BME280;18639;50.716;7.086;2023-04-04T03:49:44;101603.72;;;1.49;95.31
32131;BME280;18639;50.716;7.086;2023-04-04T03:52:10;101589.34;;;1.37;93.72
32131;BME280;18639;50.716;7.086;2023-04-04T03:54:35;101601.22;;;1.43;94.92
32131;BME280;18639;50.716;7.086;2023-04-04T03:57:00;101607.16;;;1.40;95.67
32131;BME280;18639;50.716;7.086;2023-04-04T03:59:26;101598.75;;;1.27;95.63
32131;BME280;18639;50.716;7.086;2023-04-04T04:01:51;101551.38;;;1.07;96.06
32131;BME280;18639;50.716;7.086;2023-04-04T04:04:16;101611.38;;;1.41;95.82
32131;BME280;18639;50.716;7.086;2023-04-04T04:06:42;101614.81;;;1.37;95.59
32131;BME280;18639;50.716;7.086;2023-04-04T04:09:08;101608.06;;;1.33;94.61
32131;BME280;18639;50.716;7.086;2023-04-04T04:11:33;101607.22;;;1.33;95.30
32131;BME280;18639;50.716;7.086;2023-04-04T04:13:59;101602.09;;;1.36;92.87
32131;BME280;18639;50.716;7.086;2023-04-04T04:16:24;101602.09;;;1.36;92.89
32131;BME280;18639;50.716;7.086;2023-04-04T04:18:50;101611.38;;;1.44;92.43
32131;BME280;18639;50.716;7.086;2023-04-04T04:21:15;101605.41;;;1.47;90.79
32131;BME280;18639;50.716;7.086;2023-04-04T04:23:40;101607.09;;;1.48;91.65
32131;BME280;18639;50.716;7.086;2023-04-04T04:26:06;101609.66;;;1.49;92.95
32131;BME280;18639;50.716;7.086;2023-04-04T04:28:31;101596.03;;;1.50;93.02
32131;BME280;18639;50.716;7.086;2023-04-04T04:31:04;101577.47;;;1.38;93.02
32131;BME280;18639;50.716;7.086;2023-04-04T04:33:31;101576.63;;;1.36;94.65
32131;BME280;18639;50.716;7.086;2023-04-04T04:36:03;101593.53;;;1.47;96.47
32131;BME280;18639;50.716;7.086;2023-04-04T04:38:29;101591.91;;;1.39;96.86
32131;BME280;18639;50.716;7.086;2023-04-04T04:40:55;101580.06;;;1.28;98.23
32131;BME280;18639;50.716;7.086;2023-04-04T04:43:21;101581.78;;;1.26;98.09
32131;BME280;18639;50.716;7.086;2023-04-04T04:45:46;101593.66;;;1.27;98.09
32131;BME280;18639;50.716;7.086;2023-04-04T04:48:12;101586.88;;;1.26;97.83
32131;BME280;18639;50.716;7.086;2023-04-04T04:50:37;101593.72;;;1.21;97.92
32131;BME280;18639;50.716;7.086;2023-04-04T04:53:03;101582.72;;;1.15;97.15
32131;BME280;18639;50.716;7.086;2023-04-04T04:55:28;101590.31;;;1.19;97.15
32131;BME280;18639;50.716;7.086;2023-04-04T04:57:53;101597.09;;;1.20;96.77
32131;BME280;18639;50.716;7.086;2023-04-04T05:00:19;101588.72;;;1.06;97.71
32131;BME280;18639;50.716;7.086;2023-04-04T05:02:45;101581.88;;;1.08;98.37
32131;BME280;18639;50.716;7.086;2023-04-04T05:05:10;101601.38;;;1.17;98.43
32131;BME280;18639;50.716;7.086;2023-04-04T05:07:35;101594.59;;;1.13;98.04
32131;BME280;18639;50.716;7.086;2023-04-04T05:10:01;101580.25;;;1.01;96.96
32131;BME280;18639;50.716;7.086;2023-04-04T05:12:27;101598.81;;;1.12;96.50
32131;BME280;18639;50.716;7.086;2023-04-04T05:14:52;101581.97;;;0.96;96.84
32131;BME280;18639;50.716;7.086;2023-04-04T05:17:17;101597.19;;;1.05;96.78
32131;BME280;18639;50.716;7.086;2023-04-04T05:19:43;101604.81;;;1.07;97.33
32131;BME280;18639;50.716;7.086;2023-04-04T05:22:08;101596.38;;;1.00;97.55
32131;BME280;18639;50.716;7.086;2023-04-04T05:24:33;101598.88;;;1.03;98.12
32131;BME280;18639;50.716;7.086;2023-04-04T05:26:59;101586.22;;;0.94;98.08
32131;BME280;18639;50.716;7.086;2023-04-04T05:29:24;101603.16;;;1.01;97.31
32131;BME280;18639;50.716;7.086;2023-04-04T05:31:49;101615.00;;;1.05;97.23
32131;BME280;18639;50.716;7.086;2023-04-04T05:34:15;101603.16;;;1.01;97.73
32131;BME280;18639;50.716;7.086;2023-04-04T05:36:40;101595.56;;;0.95;98.08
32131;BME280;18639;50.716;7.086;2023-04-04T05:39:06;101598.91;;;0.97;98.18
32131;BME280;18639;50.716;7.086;2023-04-04T05:41:31;101593.84;;;0.94;98.49
32131;BME280;18639;50.716;7.086;2023-04-04T05:43:57;101600.59;;;1.04;98.46
32131;BME280;18639;50.716;7.086;2023-04-04T05:46:23;101611.56;;;1.15;97.68
32131;BME280;18639;50.716;7.086;2023-04-04T05:48:49;101612.41;;;1.17;97.86
32131;BME280;18639;50.716;7.086;2023-04-04T05:51:15;101592.03;;;1.14;98.64
32131;BME280;18639;50.716;7.086;2023-04-04T05:53:40;101600.38;;;1.35;98.86
32131;BME280;18639;50.716;7.086;2023-04-04T05:56:06;101609.66;;;1.46;98.87
32131;BME280;18639;50.716;7.086;2023-04-04T05:58:31;101609.56;;;1.58;97.89
32131;BME280;18639;50.716;7.086;2023-04-04T06:00:56;101607.84;;;1.63;97.89
32131;BME280;18639;50.716;7.086;2023-04-04T06:03:22;101591.72;;;1.63;98.48
32131;BME280;18639;50.716;7.086;2023-04-04T06:05:51;101626.31;;;1.88;98.38
32131;BME280;18639;50.716;7.086;2023-04-04T06:08:17;101604.31;;;1.77;97.30
32131;BME280;18639;50.716;7.086;2023-04-04T06:10:42;101629.66;;;1.96;97.74
32131;BME280;18639;50.716;7.086;2023-04-04T06:13:07;101618.63;;;1.94;96.38
32131;BME280;18639;50.716;7.086;2023-04-04T06:15:32;101638.97;;;2.02;95.76
32131;BME280;18639;50.716;7.086;2023-04-04T06:17:58;101623.72;;;1.94;93.36
32131;BME280;18639;50.716;7.086;2023-04-04T06:20:23;101621.97;;;1.99;92.50
32131;BME280;18639;50.716;7.086;2023-04-04T06:22:48;101643.06;;;2.15;93.44
32131;BME280;18639;50.716;7.086;2023-04-04T06:25:14;101633.72;;;2.16;93.70
32131;BME280;18639;50.716;7.086;2023-04-04T06:27:39;101633.63;;;2.25;87.97
32131;BME280;18639;50.716;7.086;2023-04-04T06:30:05;101630.22;;;2.29;88.80
32131;BME280;18639;50.716;7.086;2023-04-04T06:32:31;101633.50;;;2.37;90.53
32131;BME280;18639;50.716;7.086;2023-04-04T06:34:56;101635.94;;;2.50;90.04
32131;BME280;18639;50.716;7.086;2023-04-04T06:37:21;101624.84;;;2.53;89.31
32131;BME280;18639;50.716;7.086;2023-04-04T06:39:46;101643.31;;;2.73;88.08
32131;BME280;18639;50.716;7.086;2023-04-04T06:42:12;101636.44;;;2.78;87.58
32131;BME280;18639;50.716;7.086;2023-04-04T06:44:37;101643.03;;;2.99;84.35
32131;BME280;18639;50.716;7.086;2023-04-04T06:47:02;101635.38;;;2.99;82.63
32131;BME280;18639;50.716;7.086;2023-04-04T06:49:27;101631.06;;;3.03;83.29
32131;BME280;18639;50.716;7.086;2023-04-04T06:51:53;101627.53;;;3.13;80.68
32131;BME280;18639;50.716;7.086;2023-04-04T06:54:18;101646.13;;;3.21;78.58
32131;BME280;18639;50.716;7.086;2023-04-04T06:56:43;101639.22;;;3.29;76.96
32131;BME280;18639;50.716;7.086;2023-04-04T06:59:09;101651.06;;;3.33;77.25
32131;BME280;18639;50.716;7.086;2023-04-04T07:01:36;101632.41;;;3.31;77.04
32131;BME280;18639;50.716;7.086;2023-04-04T07:04:01;101644.13;;;3.43;76.67
32131;BME280;18639;50.716;7.086;2023-04-04T07:06:27;101654.91;;;3.63;71.67
32131;BME280;18639;50.716;7.086;2023-04-04T07:08:53;101656.47;;;3.73;68.39
32131;BME280;18639;50.716;7.086;2023-04-04T07:11:19;101652.91;;;3.83;68.73
32131;BME280;18639;50.716;7.086;2023-04-04T07:13:44;101645.31;;;3.77;69.73
32131;BME280;18639;50.716;7.086;2023-04-04T07:16:10;101635.00;;;3.83;69.50
32131;BME280;18639;50.716;7.086;2023-04-04T07:18:36;101649.13;;;4.05;68.10
32131;BME280;18639;50.716;7.086;2023-04-04T07:21:01;101672.72;;;4.21;66.30
32131;BME280;18639;50.716;7.086;2023-04-04T07:23:26;101629.56;;;4.03;64.61
32131;BME280;18639;50.716;7.086;2023-04-04T07:25:51;101663.53;;;4.11;63.98
32131;BME280;18639;50.716;7.086;2023-04-04T07:28:17;101648.06;;;4.17;64.85
32131;BME280;18639;50.716;7.086;2023-04-04T07:30:42;101670.84;;;4.32;63.06
32131;BME280;18639;50.716;7.086;2023-04-04T07:33:08;101685.09;;;4.45;63.92
32131;BME280;18639;50.716;7.086;2023-04-04T07:35:33;101658.69;;;4.43;63.32
32131;BME280;18639;50.716;7.086;2023-04-04T07:37:59;101668.00;;;4.47;59.82
32131;BME280;18639;50.716;7.086;2023-04-04T07:40:24;101673.69;;;4.61;59.99
32131;BME280;18639;50.716;7.086;2023-04-04T07:42:49;101663.16;;;4.77;62.83
32131;BME280;18639;50.716;7.086;2023-04-04T07:45:16;101672.13;;;4.97;59.92
32131;BME280;18639;50.716;7.086;2023-04-04T07:47:43;101662.38;;;5.16;59.29
32131;BME280;18639;50.716;7.086;2023-04-04T07:50:09;101667.06;;;5.36;57.08
32131;BME280;18639;50.716;7.086;2023-04-04T07:52:34;101678.31;;;5.67;56.78
32131;BME280;18639;50.716;7.086;2023-04-04T07:54:59;101674.22;;;5.97;56.22
32131;BME280;18639;50.716;7.086;2023-04-04T07:57:25;101657.38;;;6.21;54.25
32131;BME280;18639;50.716;7.086;2023-04-04T07:59:50;101660.75;;;6.23;53.20
32131;BME280;18639;50.716;7.086;2023-04-04T08:02:16;101650.56;;;6.52;53.49
32131;BME280;18639;50.716;7.086;2023-04-04T08:04:41;101631.13;;;6.74;54.43
32131;BME280;18639;50.716;7.086;2023-04-04T08:07:06;101655.34;;;6.95;50.98
32131;BME280;18639;50.716;7.086;2023-04-04T08:09:31;101662.91;;;7.31;52.69
32131;BME280;18639;50.716;7.086;2023-04-04T08:12:00;101656.81;;;7.61;52.10
32131;BME280;18639;50.716;7.086;2023-04-04T08:14:26;101635.09;;;7.70;50.92
32131;BME280;18639;50.716;7.086;2023-04-04T08:16:52;101658.69;;;8.09;49.84
32131;BME280;18639;50.716;7.086;2023-04-04T08:19:17;101638.75;;;8.15;48.08
32131;BME280;18639;50.716;7.086;2023-04-04T08:21:43;101627.94;;;8.06;48.33
32131;BME280;18639;50.716;7.086;2023-04-04T08:24:10;101654.34;;;8.37;48.64
32131;BME280;18639;50.716;7.086;2023-04-04T08:26:35;101650.13;;;8.34;47.46
32131;BME280;18639;50.716;7.086;2023-04-04T08:29:01;101634.09;;;8.51;46.06
32131;BME280;18639;50.716;7.086;2023-04-04T08:31:26;101636.50;;;8.56;46.44
32131;BME280;18639;50.716;7.086;2023-04-04T08:33:52;101650.59;;;8.70;45.85
32131;BME280;18639;50.716;7.086;2023-04-04T08:36:17;101618.25;;;8.62;46.25
32131;BME280;18639;50.716;7.086;2023-04-04T08:38:43;101633.34;;;8.96;45.39
32131;BME280;18639;50.716;7.086;2023-04-04T08:41:10;101601.16;;;8.82;46.94
32131;BME280;18639;50.716;7.086;2023-04-04T08:43:37;101643.09;;;9.54;46.10
32131;BME280;18639;50.716;7.086;2023-04-04T08:46:06;101633.13;;;9.67;43.68
32131;BME280;18639;50.716;7.086;2023-04-04T08:48:33;101626.09;;;9.92;43.28
32131;BME280;18639;50.716;7.086;2023-04-04T08:51:02;101635.13;;;10.02;43.33
32131;BME280;18639;50.716;7.086;2023-04-04T08:53:28;101587.41;;;10.11;42.85
32131;BME280;18639;50.716;7.086;2023-04-04T08:55:55;101622.47;;;10.76;42.69
32131;BME280;18639;50.716;7.086;2023-04-04T08:58:23;101618.44;;;11.26;40.72
32131;BME280;18639;50.716;7.086;2023-04-04T09:00:52;101631.03;;;12.21;42.29
32131;BME280;18639;50.716;7.086;2023-04-04T09:03:24;101597.09;;;12.92;37.83
32131;BME280;18639;50.716;7.086;2023-04-04T09:05:53;101618.09;;;13.80;36.57
32131;BME280;18639;50.716;7.086;2023-04-04T09:08:20;101610.97;;;13.38;34.87
32131;BME280;18639;50.716;7.086;2023-04-04T09:10:45;101602.53;;;14.38;35.46
32131;BME280;18639;50.716;7.086;2023-04-04T09:13:12;101592.50;;;15.15;35.33
32131;BME280;18639;50.716;7.086;2023-04-04T09:15:39;101585.69;;;16.06;33.83
32131;BME280;18639;50.716;7.086;2023-04-04T09:18:06;101607.16;;;16.10;32.29
32131;BME280;18639;50.716;7.086;2023-04-04T09:20:41;101599.53;;;15.01;33.27
32131;BME280;18639;50.716;7.086;2023-04-04T09:23:15;101606.25;;;15.17;33.28
32131;BME280;18639;50.716;7.086;2023-04-04T09:25:46;101597.56;;;15.85;32.23
32131;BME280;18639;50.716;7.086;2023-04-04T09:28:16;101593.81;;;16.02;31.33
32131;BME280;18639;50.716;7.086;2023-04-04T09:30:42;101594.56;;;16.29;32.68
32131;BME280;18639;50.716;7.086;2023-04-04T09:33:10;101597.88;;;16.43;32.03
32131;BME280;18639;50.716;7.086;2023-04-04T09:35:36;101610.22;;;15.64;31.04
32131;BME280;18639;50.716;7.086;2023-04-04T09:38:04;101595.38;;;15.25;31.53
32131;BME280;18639;50.716;7.086;2023-04-04T09:40:29;101605.00;;;16.16;30.59
32131;BME280;18639;50.716;7.086;2023-04-04T09:42:59;101606.84;;;15.89;30.87
32131;BME280;18639;50.716;7.086;2023-04-04T09:45:25;101593.81;;;14.67;30.35
32131;BME280;18639;50.716;7.086;2023-04-04T09:47:50;101585.53;;;15.16;31.13
32131;BME280;18639;50.716;7.086;2023-04-04T09:50:24;101608.16;;;15.69;29.94
32131;BME280;18639;50.716;7.086;2023-04-04T09:52:50;101600.28;;;16.21;30.37
32131;BME280;18639;50.716;7.086;2023-04-04T09:55:16;101608.84;;;16.23;29.70
32131;BME280;18639;50.716;7.086;2023-04-04T09:57:42;101602.25;;;16.30;30.37
32131;BME280;18639;50.716;7.086;2023-04-04T10:00:08;101578.50;;;15.97;29.89
32131;BME280;18639;50.716;7.086;2023-04-04T10:02:37;101572.47;;;15.57;30.78
32131;BME280;18639;50.716;7.086;2023-04-04T10:05:03;101583.94;;;15.54;31.04
32131;BME280;18639;50.716;7.086;2023-04-04T10:07:29;101595.44;;;15.65;31.81
32131;BME280;18639;50.716;7.086;2023-04-04T10:09:56;101594.88;;;16.12;30.17
32131;BME280;18639;50.716;7.086;2023-04-04T10:12:25;101559.75;;;15.52;32.07
32131;BME280;18639;50.716;7.086;2023-04-04T10:14:59;101581.63;;;14.82;31.51
32131;BME280;18639;50.716;7.086;2023-04-04T10:17:38;101576.28;;;15.25;32.14
32131;BME280;18639;50.716;7.086;2023-04-04T10:20:05;101563.72;;;15.04;31.95
32131;BME280;18639;50.716;7.086;2023-04-04T10:22:31;101584.47;;;15.33;33.80
32131;BME280;18639;50.716;7.086;2023-04-04T10:24:57;101569.00;;;15.17;32.95
32131;BME280;18639;50.716;7.086;2023-04-04T10:27:23;101559.84;;;15.24;32.13
32131;BME280;18639;50.716;7.086;2023-04-04T10:29:49;101560.91;;;15.34;32.34
32131;BME280;18639;50.716;7.086;2023-04-04T10:32:35;101567.94;;;15.20;31.50
32131;BME280;18639;50.716;7.086;2023-04-04T10:35:04;101570.94;;;14.72;31.45
32131;BME280;18639;50.716;7.086;2023-04-04T10:37:34;101544.16;;;14.00;31.65
32131;BME280;18639;50.716;7.086;2023-04-04T10:40:08;101565.69;;;13.58;33.84
32131;BME280;18639;50.716;7.086;2023-04-04T10:42:41;101567.06;;;13.49;35.29
32131;BME280;18639;50.716;7.086;2023-04-04T10:45:08;101530.94;;;12.83;36.14
32131;BME280;18639;50.716;7.086;2023-04-04T10:47:38;101569.91;;;12.50;35.98
32131;BME280;18639;50.716;7.086;2023-04-04T10:50:04;101562.19;;;11.83;37.88
32131;BME280;18639;50.716;7.086;2023-04-04T10:52:35;101560.13;;;11.90;39.34
32131;BME280;18639;50.716;7.086;2023-04-04T10:55:04;101561.28;;;11.84;37.53
32131;BME280;18639;50.716;7.086;2023-04-04T10:57:32;101557.25;;;11.60;36.68
32131;BME280;18639;50.716;7.086;2023-04-04T11:00:04;101521.66;;;10.76;37.42
32131;BME280;18639;50.716;7.086;2023-04-04T11:08:04;101538.34;;;10.50;38.50
32131;BME280;18639;50.716;7.086;2023-04-04T11:13:00;101523.66;;;9.93;40.58
32131;BME280;18639;50.716;7.086;2023-04-04T11:18:11;101526.59;;;9.63;41.83
32131;BME280;18639;50.716;7.086;2023-04-04T11:20:40;101512.16;;;9.59;41.42
32131;BME280;18639;50.716;7.086;2023-04-04T11:23:17;101519.38;;;9.51;40.42
32131;BME280;18639;50.716;7.086;2023-04-04T11:25:53;101509.56;;;9.59;41.29
32131;BME280;18639;50.716;7.086;2023-04-04T11:34:02;101517.16;;;9.42;40.95
32131;BME280;18639;50.716;7.086;2023-04-04T11:41:58;101507.47;;;9.27;41.43
32131;BME280;18639;50.716;7.086;2023-04-04T11:44:27;101494.78;;;9.01;40.72
32131;BME280;18639;50.716;7.086;2023-04-04T11:46:56;101493.94;;;9.22;41.77
32131;BME280;18639;50.716;7.086;2023-04-04T11:49:26;101491.22;;;9.25;42.48
32131;BME280;18639;50.716;7.086;2023-04-04T11:51:53;101500.47;;;9.09;41.67
32131;BME280;18639;50.716;7.086;2023-04-04T11:54:19;101473.28;;;9.02;40.57
32131;BME280;18639;50.716;7.086;2023-04-04T11:56:44;101465.00;;;9.14;41.05
32131;BME280;18639;50.716;7.086;2023-04-04T11:59:17;101485.75;;;9.33;40.93
32131;BME280;18639;50.716;7.086;2023-04-04T12:01:43;101481.09;;;9.20;39.58
32131;BME280;18639;50.716;7.086;2023-04-04T12:04:09;101472.25;;;9.26;40.40
32131;BME280;18639;50.716;7.086;2023-04-04T12:06:35;101469.88;;;9.21;41.78
32131;BME280;18639;50.716;7.086;2023-04-04T12:09:02;101487.34;;;9.35;40.85
32131;BME280;18639;50.716;7.086;2023-04-04T12:11:29;101487.19;;;9.40;40.73
32131;BME280;18639;50.716;7.086;2023-04-04T12:13:55;101472.16;;;9.29;40.53
32131;BME280;18639;50.716;7.086;2023-04-04T12:16:21;101479.34;;;9.21;39.53
32131;BME280;18639;50.716;7.086;2023-04-04T12:18:48;101476.25;;;9.13;40.49
32131;BME280;18639;50.716;7.086;2023-04-04T12:21:13;101450.41;;;8.93;40.67
32131;BME280;18639;50.716;7.086;2023-04-04T12:23:38;101459.59;;;8.78;39.59
32131;BME280;18639;50.716;7.086;2023-04-04T12:26:04;101463.91;;;8.77;38.55
32131;BME280;18639;50.716;7.086;2023-04-04T12:28:30;101439.03;;;8.76;41.29
32131;BME280;18639;50.716;7.086;2023-04-04T12:30:59;101459.47;;;9.03;41.16
32131;BME280;18639;50.716;7.086;2023-04-04T12:33:32;101440.88;;;8.95;39.68
32131;BME280;18639;50.716;7.086;2023-04-04T12:35:59;101451.88;;;9.20;40.83
32131;BME280;18639;50.716;7.086;2023-04-04T12:38:24;101449.41;;;8.97;40.58
32131;BME280;18639;50.716;7.086;2023-04-04T12:40:51;101452.25;;;9.11;41.23
32131;BME280;18639;50.716;7.086;2023-04-04T12:43:16;101448.34;;;9.22;40.64
32131;BME280;18639;50.716;7.086;2023-04-04T12:45:42;101450.69;;;9.28;41.60
32131;BME280;18639;50.716;7.086;2023-04-04T12:48:10;101441.13;;;9.30;42.09
32131;BME280;18639;50.716;7.086;2023-04-04T12:50:48;101440.16;;;9.13;39.97
32131;BME280;18639;50.716;7.086;2023-04-04T12:53:15;101441.47;;;9.23;40.31
32131;BME280;18639;50.716;7.086;2023-04-04T12:55:47;101437.91;;;9.46;40.43
32131;BME280;18639;50.716;7.086;2023-04-04T12:58:15;101438.09;;;9.21;38.74
32131;BME280;18639;50.716;7.086;2023-04-04T13:00:41;101433.06;;;9.38;42.14
32131;BME280;18639;50.716;7.086;2023-04-04T13:03:07;101393.91;;;9.08;39.21
32131;BME280;18639;50.716;7.086;2023-04-04T13:05:33;101409.31;;;9.30;40.65
32131;BME280;18639;50.716;7.086;2023-04-04T13:08:09;101422.50;;;9.44;40.00
32131;BME280;18639;50.716;7.086;2023-04-04T13:10:58;101391.16;;;9.33;40.62
32131;BME280;18639;50.716;7.086;2023-04-04T13:13:38;101416.31;;;9.48;39.42
32131;BME280;18639;50.716;7.086;2023-04-04T13:16:06;101404.56;;;9.41;38.02